Time;durP1;ratioP1;P1;durP2;ratioP2;P2;SDS_P1;SDS_P2;PMS_P1;PMS_P2;Temp;Humidity;BMP_temperature;BMP_pressure;BME280_temperature;BME280_humidity;BME280_pressure;Samples;Min_cycle;Max_cycle;Signal;HPM_P1;HPM_P2
2021/12/04 00:00:11;;;;;;;2.50;1.50;;;3.00;98.00;;;;;;5013939;28;20464;-63
2021/12/04 00:02:38;;;;;;;1.80;1.30;;;2.90;98.00;;;;;;5013883;28;20529;-64
2021/12/04 00:05:07;;;;;;;2.53;1.60;;;3.00;98.00;;;;;;5012375;28;20519;-64
2021/12/04 00:07:38;;;;;;;1.43;1.20;;;3.20;98.00;;;;;;5013674;28;21037;-64
2021/12/04 00:10:07;;;;;;;1.90;1.50;;;3.10;98.00;;;;;;5013493;28;20580;-63
2021/12/04 00:12:34;;;;;;;1.13;1.00;;;3.00;98.00;;;;;;5013443;28;20471;-63
2021/12/04 00:15:03;;;;;;;1.20;1.10;;;2.90;98.00;;;;;;5013422;28;20513;-62
2021/12/04 00:17:30;;;;;;;1.40;1.20;;;2.90;98.00;;;;;;5013477;28;20462;-64
2021/12/04 00:19:57;;;;;;;1.20;1.10;;;2.90;98.00;;;;;;5012313;28;20474;-64
2021/12/04 00:22:24;;;;;;;2.37;1.30;;;2.90;98.00;;;;;;5013432;28;20521;-63
2021/12/04 00:24:51;;;;;;;1.10;0.97;;;3.00;98.00;;;;;;5013799;28;20462;-64
2021/12/04 00:27:18;;;;;;;2.90;1.63;;;2.90;98.00;;;;;;5013210;28;20514;-63
2021/12/04 00:29:45;;;;;;;1.13;1.00;;;2.80;98.00;;;;;;5013267;28;20490;-63
2021/12/04 00:32:19;;;;;;;1.20;1.20;;;2.60;98.00;;;;;;5013256;28;20601;-64
2021/12/04 00:34:54;;;;;;;1.20;1.00;;;2.60;98.00;;;;;;5013413;28;20525;-64
2021/12/04 00:51:08;;;;;;;1.10;1.00;;;2.90;98.00;;;;;;5011342;28;20598;-64
2021/12/04 00:53:35;;;;;;;1.10;1.00;;;2.90;98.00;;;;;;5013018;28;20498;-64
2021/12/04 00:56:03;;;;;;;1.20;1.03;;;2.90;98.00;;;;;;5011904;28;20518;-63
2021/12/04 00:58:30;;;;;;;1.20;1.07;;;2.90;98.00;;;;;;5012835;28;20459;-63
2021/12/04 01:00:58;;;;;;;1.20;1.20;;;2.90;98.00;;;;;;5012575;28;20490;-63
2021/12/04 01:03:26;;;;;;;2.23;1.37;;;2.90;98.00;;;;;;5011142;28;20475;-63
2021/12/04 01:05:53;;;;;;;1.40;1.20;;;3.00;98.00;;;;;;5012328;28;20503;-63
2021/12/04 01:08:21;;;;;;;1.20;1.13;;;3.10;98.00;;;;;;5012148;28;20576;-63
2021/12/04 01:10:47;;;;;;;1.20;1.00;;;3.00;98.00;;;;;;5011074;28;20463;-63
2021/12/04 01:13:14;;;;;;;1.83;1.60;;;2.90;98.00;;;;;;5011816;28;20505;-63
2021/12/04 01:15:43;;;;;;;1.40;1.27;;;2.90;98.00;;;;;;5011671;28;21039;-63
2021/12/04 01:18:11;;;;;;;1.20;1.00;;;3.00;98.00;;;;;;5012038;28;20495;-64
2021/12/04 01:20:39;;;;;;;1.40;1.30;;;3.00;98.00;;;;;;5011774;28;20459;-64
2021/12/04 01:23:07;;;;;;;2.23;1.37;;;2.90;98.00;;;;;;5011479;28;20466;-63
2021/12/04 01:25:35;;;;;;;2.50;1.20;;;2.80;98.00;;;;;;5011733;28;20518;-63
2021/12/04 01:28:03;;;;;;;2.07;1.27;;;3.00;98.00;;;;;;5011400;28;20987;-64
2021/12/04 01:30:30;;;;;;;1.20;1.10;;;2.90;98.00;;;;;;5011707;28;20537;-64
2021/12/04 01:32:58;;;;;;;1.10;1.00;;;2.90;98.00;;;;;;5011496;28;20462;-64
2021/12/04 01:35:25;;;;;;;1.20;1.00;;;2.90;98.00;;;;;;5010326;28;20498;-63
2021/12/04 01:37:53;;;;;;;1.20;1.10;;;2.90;98.00;;;;;;5011528;28;20553;-63
2021/12/04 01:40:23;;;;;;;1.10;1.00;;;2.80;98.00;;;;;;5011123;28;20451;-63
2021/12/04 01:42:50;;;;;;;2.13;1.20;;;3.00;98.00;;;;;;5011411;28;20467;-64
2021/12/04 01:45:20;;;;;;;1.70;1.20;;;3.00;98.00;;;;;;5011232;28;21180;-63
2021/12/04 01:47:47;;;;;;;1.10;1.00;;;3.00;98.00;;;;;;5011126;28;20459;-64
2021/12/04 01:50:15;;;;;;;1.20;1.10;;;2.90;98.00;;;;;;5011268;28;20920;-64
2021/12/04 01:52:43;;;;;;;1.17;1.10;;;2.90;98.00;;;;;;5010954;28;20509;-63
2021/12/04 01:55:11;;;;;;;1.40;1.27;;;3.00;98.00;;;;;;5010198;28;20463;-63
2021/12/04 01:57:38;;;;;;;1.10;1.00;;;3.00;98.00;;;;;;5011182;28;20509;-64
2021/12/04 02:00:08;;;;;;;1.83;1.47;;;3.20;98.00;;;;;;5010147;28;20528;-63
2021/12/04 02:02:35;;;;;;;1.30;1.20;;;3.20;98.00;;;;;;4971712;28;1152690;-63
2021/12/04 02:05:02;;;;;;;1.20;1.10;;;3.20;98.00;;;;;;5012199;28;20604;-64
2021/12/04 02:07:30;;;;;;;1.20;1.00;;;3.10;98.00;;;;;;5012124;28;20462;-63
2021/12/04 02:09:57;;;;;;;1.20;1.07;;;3.00;98.00;;;;;;5012173;28;20502;-64
2021/12/04 02:12:27;;;;;;;1.20;1.10;;;3.00;98.00;;;;;;5011154;28;20455;-63
2021/12/04 02:14:54;;;;;;;1.10;1.00;;;3.00;98.00;;;;;;5012102;28;20518;-64
2021/12/04 02:17:22;;;;;;;1.20;1.10;;;2.90;98.00;;;;;;5012104;28;20498;-63
2021/12/04 02:19:49;;;;;;;1.10;1.10;;;2.80;98.00;;;;;;5010847;28;20875;-63
2021/12/04 02:22:18;;;;;;;1.50;1.27;;;2.80;98.00;;;;;;5012107;28;20494;-63
2021/12/04 02:24:45;;;;;;;1.10;1.00;;;2.80;98.00;;;;;;5011994;28;20478;-64
2021/12/04 02:27:13;;;;;;;1.30;1.30;;;2.60;98.00;;;;;;5012102;28;20459;-64
2021/12/04 02:29:46;;;;;;;1.10;1.10;;;2.50;98.00;;;;;;5011472;28;20491;-63
2021/12/04 02:32:14;;;;;;;1.50;1.10;;;2.50;98.00;;;;;;5011946;28;20490;-63
2021/12/04 02:34:42;;;;;;;2.77;1.60;;;2.50;98.00;;;;;;5011678;28;20952;-64
2021/12/04 02:37:10;;;;;;;1.50;1.40;;;2.40;98.00;;;;;;5011709;28;20525;-64
2021/12/04 02:39:44;;;;;;;1.10;1.00;;;2.40;98.00;;;;;;5011599;28;20487;-63
2021/12/04 02:42:22;;;;;;;1.83;1.10;;;2.50;98.00;;;;;;5011175;28;20961;-64
2021/12/04 02:44:50;;;;;;;1.10;1.03;;;2.50;98.00;;;;;;5011405;28;20532;-63
2021/12/04 02:47:18;;;;;;;1.20;1.10;;;2.40;98.00;;;;;;5011785;28;20906;-63
2021/12/04 02:49:46;;;;;;;1.10;1.00;;;2.40;98.00;;;;;;5011412;28;20496;-64
2021/12/04 02:52:15;;;;;;;1.10;1.00;;;2.40;98.00;;;;;;5011694;28;20463;-63
2021/12/04 02:54:44;;;;;;;1.30;1.10;;;2.40;98.00;;;;;;5011242;28;20455;-63
2021/12/04 02:57:13;;;;;;;1.10;1.00;;;2.40;98.00;;;;;;5011390;28;20503;-63
2021/12/04 02:59:42;;;;;;;1.10;1.00;;;2.30;98.00;;;;;;5011373;28;20462;-64
2021/12/04 03:02:17;;;;;;;1.10;1.00;;;2.50;98.00;;;;;;5011484;28;20471;-64
2021/12/04 03:04:44;;;;;;;1.10;1.00;;;2.60;98.00;;;;;;5011234;28;20458;-63
2021/12/04 03:07:11;;;;;;;1.20;1.20;;;2.70;98.00;;;;;;5011439;28;20521;-63
2021/12/04 03:09:38;;;;;;;1.10;1.00;;;2.70;98.00;;;;;;5011053;28;20565;-63
2021/12/04 03:12:08;;;;;;;1.20;1.10;;;2.80;98.00;;;;;;5012865;28;20495;-63
2021/12/04 03:14:36;;;;;;;1.10;0.90;;;2.70;98.00;;;;;;5014972;28;20471;-63
2021/12/04 03:17:04;;;;;;;1.10;1.00;;;2.70;98.00;;;;;;5015228;28;20516;-64
2021/12/04 03:19:32;;;;;;;1.10;1.00;;;2.60;98.00;;;;;;5014934;28;20466;-63
2021/12/04 03:21:59;;;;;;;1.10;1.00;;;2.50;98.00;;;;;;5014901;28;20996;-63
2021/12/04 03:24:27;;;;;;;1.20;1.20;;;2.50;98.00;;;;;;5014705;28;21200;-63
2021/12/04 03:26:55;;;;;;;1.10;1.00;;;2.60;98.00;;;;;;5014846;28;20542;-63
2021/12/04 03:29:27;;;;;;;1.10;1.10;;;2.60;98.00;;;;;;5014663;28;20490;-63
2021/12/04 03:40:37;;;;;;;1.10;1.00;;;2.80;98.00;;;;;;5012071;28;20542;-63
2021/12/04 03:43:15;;;;;;;1.10;1.00;;;2.80;98.00;;;;;;5014243;28;20815;-63
2021/12/04 03:45:46;;;;;;;1.10;1.00;;;2.80;98.00;;;;;;5014518;28;20478;-63
2021/12/04 03:48:28;;;;;;;1.10;1.03;;;2.80;98.00;;;;;;5014345;28;20463;-63
2021/12/04 03:50:55;;;;;;;1.17;1.13;;;2.70;98.00;;;;;;5014340;28;20492;-63
2021/12/04 03:53:22;;;;;;;1.10;1.00;;;2.80;98.00;;;;;;5014070;28;20878;-63
2021/12/04 03:55:50;;;;;;;1.50;1.20;;;2.80;98.00;;;;;;5013967;28;20918;-64
2021/12/04 03:58:17;;;;;;;1.10;1.00;;;2.80;98.00;;;;;;5014052;28;20517;-63
2021/12/04 04:00:46;;;;;;;1.10;1.00;;;2.80;98.00;;;;;;5013933;28;20494;-63
2021/12/04 04:03:13;;;;;;;1.60;1.03;;;2.90;98.00;;;;;;5013338;28;20532;-63
2021/12/04 04:05:40;;;;;;;1.10;1.00;;;2.90;98.00;;;;;;5013843;28;20495;-63
2021/12/04 04:08:09;;;;;;;1.97;1.47;;;2.80;98.00;;;;;;5012725;28;20517;-63
2021/12/04 04:10:36;;;;;;;1.10;1.10;;;2.90;98.00;;;;;;5013701;28;20493;-63
2021/12/04 04:13:03;;;;;;;1.10;1.00;;;2.90;98.00;;;;;;5013984;28;21007;-62
2021/12/04 04:15:31;;;;;;;2.60;1.33;;;2.80;98.00;;;;;;5013759;28;20481;-63
2021/12/04 04:17:59;;;;;;;1.10;1.03;;;2.80;98.00;;;;;;5012418;28;20517;-63
2021/12/04 04:20:26;;;;;;;1.10;1.00;;;2.70;98.00;;;;;;5013757;28;20498;-63
2021/12/04 04:22:54;;;;;;;1.37;1.20;;;2.80;98.00;;;;;;5012434;28;20982;-64
2021/12/04 04:25:21;;;;;;;1.10;1.00;;;2.90;98.00;;;;;;5012384;28;20494;-64
2021/12/04 04:27:48;;;;;;;1.30;1.10;;;2.90;98.00;;;;;;5012704;28;20459;-62
2021/12/04 04:30:17;;;;;;;1.10;1.00;;;2.80;98.00;;;;;;5013050;28;20546;-63
2021/12/04 04:32:46;;;;;;;1.10;1.00;;;2.80;98.00;;;;;;5013673;28;20459;-63
2021/12/04 04:35:16;;;;;;;1.20;1.10;;;2.70;98.00;;;;;;5013434;28;20818;-63
2021/12/04 04:37:50;;;;;;;1.30;1.30;;;2.80;98.00;;;;;;5013342;28;20463;-63
2021/12/04 04:59:54;;;;;;;1.20;1.20;;;2.80;98.00;;;;;;5013089;28;20475;-63
2021/12/04 05:02:38;;;;;;;1.20;1.10;;;2.90;98.00;;;;;;5012955;28;20517;-63
2021/12/04 05:13:18;;;;;;;1.20;1.10;;;3.10;98.00;;;;;;5012608;28;20943;-63
2021/12/04 05:15:56;;;;;;;1.33;1.30;;;3.10;98.00;;;;;;5013106;28;20517;-63
2021/12/04 05:18:33;;;;;;;1.10;1.00;;;3.10;98.00;;;;;;5012561;28;21022;-64
2021/12/04 05:21:06;;;;;;;1.60;1.43;;;3.10;98.00;;;;;;5012706;28;20455;-63
2021/12/04 05:23:36;;;;;;;1.10;1.00;;;3.00;98.00;;;;;;5012519;28;20534;-63
2021/12/04 05:26:06;;;;;;;1.10;1.00;;;3.00;98.00;;;;;;5012429;28;20899;-64
2021/12/04 05:28:33;;;;;;;1.47;1.20;;;3.00;98.00;;;;;;5012394;28;20553;-64
2021/12/04 05:31:01;;;;;;;1.30;1.20;;;3.00;98.00;;;;;;5012298;28;20565;-64
2021/12/04 05:33:29;;;;;;;1.20;1.10;;;3.00;98.00;;;;;;5012599;28;20464;-63
2021/12/04 05:35:56;;;;;;;1.20;1.10;;;3.00;98.00;;;;;;5011987;28;20537;-63
2021/12/04 05:38:25;;;;;;;1.73;1.30;;;3.00;98.00;;;;;;5012283;28;20542;-63
2021/12/04 05:40:53;;;;;;;1.10;1.00;;;3.00;98.00;;;;;;5012269;28;20452;-63
2021/12/04 05:43:22;;;;;;;1.10;1.00;;;3.00;98.00;;;;;;5012132;28;20506;-63
2021/12/04 05:45:55;;;;;;;1.10;0.90;;;3.00;98.00;;;;;;5012216;28;20459;-63
2021/12/04 05:48:29;;;;;;;1.37;1.10;;;3.10;98.00;;;;;;5012167;28;20460;-63
2021/12/04 05:51:21;;;;;;;1.10;1.00;;;3.10;98.00;;;;;;5011964;28;20487;-64
2021/12/04 05:54:02;;;;;;;1.10;1.00;;;3.10;98.00;;;;;;5012026;28;20602;-63
2021/12/04 05:56:32;;;;;;;1.10;1.10;;;3.20;98.00;;;;;;5012081;28;20463;-63
2021/12/04 05:59:02;;;;;;;1.10;1.10;;;3.30;98.00;;;;;;5011914;28;20463;-63
2021/12/04 06:01:32;;;;;;;1.20;1.20;;;3.40;98.00;;;;;;5011821;28;20529;-64
2021/12/04 06:04:02;;;;;;;3.10;1.40;;;3.30;98.00;;;;;;5012022;28;20509;-64
2021/12/04 06:06:29;;;;;;;1.10;1.00;;;3.30;98.00;;;;;;5011985;28;20513;-63
2021/12/04 06:08:56;;;;;;;1.20;1.00;;;3.30;98.00;;;;;;5011871;28;20522;-63
2021/12/04 06:11:23;;;;;;;1.27;1.10;;;3.30;98.00;;;;;;5011938;28;20545;-64
2021/12/04 06:13:52;;;;;;;1.40;1.30;;;3.20;98.00;;;;;;5011889;28;20463;-64
2021/12/04 06:16:19;;;;;;;1.83;1.20;;;3.30;98.00;;;;;;5012103;28;20521;-63
2021/12/04 06:18:47;;;;;;;1.30;1.10;;;3.20;98.00;;;;;;5012140;28;20855;-64
2021/12/04 06:23:59;;;;;;;1.77;1.10;;;3.20;98.00;;;;;;5012166;28;20518;-64
2021/12/04 06:26:26;;;;;;;1.10;1.00;;;3.20;98.00;;;;;;5012027;28;20518;-63
2021/12/04 06:28:55;;;;;;;1.20;1.00;;;3.20;98.00;;;;;;5012037;28;20868;-63
2021/12/04 06:31:22;;;;;;;1.37;1.23;;;3.40;98.00;;;;;;5012031;28;20491;-63
2021/12/04 06:33:49;;;;;;;1.20;1.00;;;3.40;98.00;;;;;;5011974;28;20518;-63
2021/12/04 06:36:17;;;;;;;1.20;1.13;;;3.40;98.00;;;;;;5011974;28;20509;-63
2021/12/04 06:38:44;;;;;;;4.17;1.43;;;3.40;98.00;;;;;;5011855;28;20959;-64
2021/12/04 06:41:12;;;;;;;1.40;1.20;;;3.30;98.00;;;;;;5011689;28;20462;-64
2021/12/04 06:43:44;;;;;;;1.20;1.00;;;3.30;98.00;;;;;;5011902;28;20598;-63
2021/12/04 06:46:13;;;;;;;1.40;1.30;;;3.30;98.00;;;;;;5011587;28;20459;-63
2021/12/04 06:48:42;;;;;;;1.10;1.00;;;3.30;98.00;;;;;;5015185;28;20459;-63
2021/12/04 06:51:20;;;;;;;1.10;1.00;;;3.40;98.00;;;;;;5015166;28;20491;-64
2021/12/04 06:53:53;;;;;;;1.30;1.20;;;3.60;98.00;;;;;;5015444;28;20981;-63
2021/12/04 06:56:23;;;;;;;1.63;1.30;;;3.50;98.00;;;;;;5014844;28;20455;-63
2021/12/04 06:58:52;;;;;;;1.20;1.20;;;3.50;98.00;;;;;;5015245;28;20495;-63
2021/12/04 07:01:20;;;;;;;1.10;1.00;;;3.40;98.00;;;;;;5014943;28;20459;-64
2021/12/04 07:03:51;;;;;;;1.83;1.33;;;3.40;98.00;;;;;;5014985;28;20517;-63
2021/12/04 07:06:18;;;;;;;1.20;1.20;;;3.40;98.00;;;;;;5015032;28;20513;-64
2021/12/04 07:08:47;;;;;;;1.20;1.00;;;3.40;98.00;;;;;;5013798;28;20886;-63
2021/12/04 07:11:14;;;;;;;1.10;1.10;;;3.60;98.00;;;;;;5014966;28;20498;-64
2021/12/04 07:13:41;;;;;;;1.33;1.30;;;3.80;98.00;;;;;;5014883;28;20538;-64
2021/12/04 07:16:13;;;;;;;2.07;1.27;;;3.80;98.00;;;;;;5014830;28;20486;-63
2021/12/04 07:18:41;;;;;;;1.20;1.20;;;3.70;98.00;;;;;;5014810;28;20513;-64
2021/12/04 07:21:08;;;;;;;1.20;1.10;;;3.70;98.00;;;;;;5014801;28;20459;-63
2021/12/04 07:23:36;;;;;;;1.60;1.60;;;3.60;98.00;;;;;;5014324;28;20866;-63
2021/12/04 07:26:04;;;;;;;2.23;1.30;;;3.60;98.00;;;;;;5014737;28;20939;-64
2021/12/04 07:28:31;;;;;;;1.57;1.30;;;3.40;98.00;;;;;;5014845;28;20816;-63
2021/12/04 07:30:58;;;;;;;1.10;1.00;;;3.40;98.00;;;;;;5014721;28;20519;-63
2021/12/04 07:33:25;;;;;;;1.30;1.10;;;3.50;98.00;;;;;;5013259;28;20460;-65
2021/12/04 07:35:54;;;;;;;1.10;1.00;;;3.50;98.00;;;;;;5014765;28;20488;-64
2021/12/04 07:38:21;;;;;;;2.60;1.10;;;3.50;98.00;;;;;;5013236;28;20462;-64
2021/12/04 07:40:48;;;;;;;1.10;0.97;;;3.50;98.00;;;;;;5014629;28;20456;-64
2021/12/04 07:43:16;;;;;;;1.10;1.00;;;3.50;98.00;;;;;;5014404;28;20528;-64
2021/12/04 07:45:43;;;;;;;1.10;1.10;;;3.60;98.00;;;;;;5014716;28;20499;-63
2021/12/04 07:48:10;;;;;;;1.70;1.37;;;3.60;98.00;;;;;;5014395;28;20487;-64
2021/12/04 07:50:38;;;;;;;1.50;1.10;;;3.60;98.00;;;;;;5014431;28;20483;-64
2021/12/04 07:53:07;;;;;;;1.70;1.10;;;3.80;98.00;;;;;;5014461;28;20491;-63
2021/12/04 07:55:34;;;;;;;1.10;1.00;;;3.90;98.00;;;;;;5014251;28;20478;-63
2021/12/04 07:58:01;;;;;;;1.10;1.00;;;3.90;98.00;;;;;;5013960;28;20510;-63
2021/12/04 08:00:29;;;;;;;2.03;1.20;;;3.90;98.00;;;;;;5012735;28;20459;-64
2021/12/04 08:02:56;;;;;;;1.20;1.20;;;3.80;98.00;;;;;;5013853;28;20468;-63
2021/12/04 08:05:24;;;;;;;1.20;1.00;;;3.90;98.00;;;;;;5013776;28;20502;-64
2021/12/04 08:07:54;;;;;;;1.20;1.00;;;3.90;98.00;;;;;;5013727;28;20466;-63
2021/12/04 08:10:24;;;;;;;1.30;1.13;;;3.90;98.00;;;;;;5013627;28;20532;-63
2021/12/04 08:12:51;;;;;;;1.10;0.90;;;3.90;98.00;;;;;;5013740;28;20518;-63
2021/12/04 08:15:18;;;;;;;1.10;1.10;;;3.90;98.00;;;;;;5013547;28;20463;-64
2021/12/04 08:17:46;;;;;;;1.20;1.20;;;3.90;98.00;;;;;;5013749;28;20477;-64
2021/12/04 08:20:14;;;;;;;1.10;1.00;;;3.90;98.00;;;;;;5013514;28;20907;-63
2021/12/04 08:22:41;;;;;;;1.10;1.00;;;3.90;98.00;;;;;;5013456;28;20498;-64
2021/12/04 08:25:12;;;;;;;1.20;1.10;;;3.80;98.00;;;;;;5013496;28;20495;-64
2021/12/04 08:27:43;;;;;;;1.17;1.13;;;3.90;98.00;;;;;;5013369;28;20493;-64
2021/12/04 08:30:12;;;;;;;1.10;0.93;;;4.00;98.00;;;;;;5013216;28;20510;-64
2021/12/04 08:32:40;;;;;;;1.10;1.00;;;4.00;98.00;;;;;;5013411;28;20524;-63
2021/12/04 08:35:10;;;;;;;3.73;1.27;;;3.90;98.00;;;;;;5012157;28;20548;-63
2021/12/04 08:37:41;;;;;;;2.00;1.47;;;3.90;98.00;;;;;;5012378;28;20456;-63
2021/12/04 08:40:14;;;;;;;1.10;1.00;;;3.90;98.00;;;;;;5013511;28;20464;-64
2021/12/04 08:42:45;;;;;;;1.70;1.60;;;4.00;98.00;;;;;;5013546;28;20543;-63
2021/12/04 08:45:13;;;;;;;1.97;1.43;;;4.20;98.00;;;;;;5013402;28;20462;-62
2021/12/04 08:47:41;;;;;;;1.30;1.27;;;4.10;98.00;;;;;;5009008;28;20463;-64
2021/12/04 08:50:11;;;;;;;1.50;1.43;;;4.10;98.00;;;;;;5008207;28;20558;-63
2021/12/04 08:52:39;;;;;;;1.10;1.10;;;4.20;98.00;;;;;;5010757;28;20528;-62
2021/12/04 08:55:07;;;;;;;1.10;1.00;;;4.30;98.00;;;;;;5010578;28;20942;-64
2021/12/04 08:57:34;;;;;;;1.43;1.00;;;4.50;98.00;;;;;;5010780;28;20488;-63
2021/12/04 09:00:05;;;;;;;1.20;1.20;;;4.40;98.00;;;;;;5010435;28;20488;-63
2021/12/04 09:02:34;;;;;;;1.30;1.30;;;4.40;98.00;;;;;;5010315;28;20472;-64
2021/12/04 09:05:01;;;;;;;3.63;1.70;;;4.30;98.00;;;;;;5010100;28;20513;-64
2021/12/04 09:07:28;;;;;;;1.13;1.10;;;4.30;98.00;;;;;;5010290;28;21267;-64
2021/12/04 09:09:57;;;;;;;1.30;1.20;;;4.20;98.00;;;;;;5008664;28;20457;-64
2021/12/04 09:12:26;;;;;;;1.93;1.83;;;4.10;98.00;;;;;;5010116;28;20574;-63
2021/12/04 09:14:54;;;;;;;1.10;1.00;;;4.10;98.00;;;;;;5009938;28;20514;-63
2021/12/04 09:17:24;;;;;;;3.50;1.80;;;4.20;98.00;;;;;;5009959;28;20461;-64
2021/12/04 09:19:52;;;;;;;1.17;1.03;;;4.20;98.00;;;;;;5009991;28;20493;-62
2021/12/04 09:22:26;;;;;;;1.87;1.20;;;4.30;98.00;;;;;;5009970;28;20488;-63
2021/12/04 09:24:58;;;;;;;1.20;1.00;;;4.40;98.00;;;;;;5009694;28;20495;-64
2021/12/04 09:27:39;;;;;;;2.90;1.50;;;4.70;98.00;;;;;;5009887;28;20516;-63
2021/12/04 09:30:18;;;;;;;2.80;1.47;;;4.70;98.00;;;;;;5009719;28;20469;-62
2021/12/04 10:00:44;;;;;;;2.00;1.63;;;5.30;98.00;;;;;;5012008;28;20463;-63
2021/12/04 10:17:41;;;;;;;1.20;1.10;;;5.30;98.00;;;;;;5012183;28;20501;-63
2021/12/04 10:20:20;;;;;;;1.30;1.10;;;5.10;98.00;;;;;;5011757;28;20460;-63
2021/12/04 10:34:15;;;;;;;1.93;1.77;;;5.20;98.00;;;;;;5016148;28;20446;-64
2021/12/04 10:36:42;;;;;;;7.83;2.13;;;5.20;98.00;;;;;;5015755;28;20455;-64
2021/12/04 10:39:13;;;;;;;3.83;2.60;;;5.30;98.00;;;;;;5015795;28;20469;-64
2021/12/04 10:41:43;;;;;;;5.10;2.87;;;5.30;98.00;;;;;;5015555;28;20817;-63
2021/12/04 10:44:15;;;;;;;1.73;1.43;;;5.40;98.00;;;;;;5015299;28;20459;-64
2021/12/04 10:46:56;;;;;;;3.70;1.63;;;5.70;98.00;;;;;;5015626;28;21009;-64
2021/12/04 10:49:52;;;;;;;1.97;1.60;;;5.70;98.00;;;;;;5015355;28;21102;-63
2021/12/04 10:52:24;;;;;;;3.97;1.60;;;5.80;98.00;;;;;;5015153;28;20523;-64
2021/12/04 10:55:10;;;;;;;2.47;1.63;;;6.00;98.00;;;;;;4998036;28;20468;-64
2021/12/04 11:00:35;;;;;;;1.13;1.10;;;6.10;98.00;;;;;;5010182;28;20551;-64
2021/12/04 11:03:17;;;;;;;6.63;3.00;;;6.20;98.00;;;;;;5014594;28;20998;-65
2021/12/04 11:22:28;;;;;;;2.80;2.17;;;6.40;98.00;;;;;;5013553;28;20465;-65
2021/12/04 11:36:22;;;;;;;2.70;1.73;;;6.90;98.00;;;;;;5013730;28;20884;-65
2021/12/04 11:38:52;;;;;;;1.30;1.30;;;6.90;98.00;;;;;;5013625;28;20486;-64
2021/12/04 11:41:28;;;;;;;1.47;1.10;;;6.90;98.00;;;;;;5013455;28;20562;-64
2021/12/04 11:44:04;;;;;;;1.70;1.20;;;6.80;98.00;;;;;;5013391;28;20968;-64
2021/12/04 11:46:42;;;;;;;1.20;1.10;;;6.80;98.00;;;;;;5013716;28;20540;-64
2021/12/04 11:49:11;;;;;;;3.20;2.20;;;6.80;98.00;;;;;;5013344;28;20517;-65
2021/12/04 11:51:56;;;;;;;1.57;1.43;;;6.80;98.00;;;;;;5013696;28;20489;-65
2021/12/04 11:54:24;;;;;;;3.67;1.83;;;6.80;98.00;;;;;;5013242;28;20539;-65
2021/12/04 11:57:01;;;;;;;3.20;2.17;;;6.80;98.00;;;;;;5013749;28;20829;-64
2021/12/04 11:59:31;;;;;;;2.30;1.97;;;7.00;98.00;;;;;;5012435;28;20513;-63
2021/12/04 12:02:00;;;;;;;1.20;1.10;;;7.10;98.00;;;;;;5013318;28;20892;-63
2021/12/04 12:04:36;;;;;;;2.03;1.67;;;7.20;98.00;;;;;;5013250;28;20848;-64
2021/12/04 12:07:17;;;;;;;2.20;1.10;;;7.20;98.00;;;;;;5013213;28;20467;-64
2021/12/04 12:09:45;;;;;;;2.57;2.07;;;7.10;98.00;;;;;;5013414;28;20596;-65
2021/12/04 12:12:14;;;;;;;1.30;1.10;;;7.00;98.00;;;;;;5013026;28;20483;-64
2021/12/04 12:14:49;;;;;;;1.97;1.20;;;7.00;98.00;;;;;;5012993;28;20458;-64
2021/12/04 12:17:18;;;;;;;1.87;1.37;;;7.00;98.00;;;;;;5013082;28;20473;-65
2021/12/04 12:19:53;;;;;;;1.77;1.37;;;7.00;98.00;;;;;;5013079;28;20526;-63
2021/12/04 12:22:36;;;;;;;2.27;1.50;;;7.00;98.00;;;;;;5012851;28;20532;-64
2021/12/04 12:25:28;;;;;;;2.50;1.73;;;7.20;98.00;;;;;;5012887;28;20949;-64
2021/12/04 12:33:58;;;;;;;1.67;1.33;;;7.30;98.00;;;;;;5012582;28;20535;-64
2021/12/04 12:36:27;;;;;;;2.70;1.60;;;7.50;98.00;;;;;;5012497;28;20452;-64
2021/12/04 12:38:57;;;;;;;1.50;1.30;;;7.50;98.00;;;;;;5012492;28;20473;-65
2021/12/04 12:41:28;;;;;;;2.10;1.83;;;7.50;98.00;;;;;;5012651;28;20463;-64
2021/12/04 12:44:04;;;;;;;2.30;1.60;;;7.40;98.00;;;;;;5011918;28;20455;-64
2021/12/04 12:46:40;;;;;;;1.10;0.90;;;7.60;98.00;;;;;;5012416;28;20487;-64
2021/12/04 12:49:20;;;;;;;1.70;1.30;;;7.50;98.00;;;;;;5012275;28;20826;-64
2021/12/04 12:51:54;;;;;;;1.60;1.53;;;7.50;98.00;;;;;;5012227;28;20992;-64
2021/12/04 12:54:26;;;;;;;1.77;1.10;;;7.60;98.00;;;;;;5012118;28;20459;-65
2021/12/04 12:57:00;;;;;;;1.53;1.43;;;7.60;98.00;;;;;;5012328;28;20522;-64
2021/12/04 12:59:37;;;;;;;1.97;1.67;;;7.70;98.00;;;;;;5012168;28;20454;-64
2021/12/04 13:13:35;;;;;;;1.10;0.90;;;7.90;98.00;;;;;;5011850;28;20908;-63
2021/12/04 13:16:07;;;;;;;1.27;1.10;;;8.10;98.00;;;;;;5011972;28;20467;-63
2021/12/04 13:18:37;;;;;;;1.20;1.10;;;8.30;98.00;;;;;;5012224;28;20539;-65
2021/12/04 13:21:07;;;;;;;1.10;1.00;;;8.40;98.00;;;;;;5011888;28;20456;-64
2021/12/04 13:23:35;;;;;;;1.10;0.90;;;8.50;98.00;;;;;;5012140;28;20521;-64
2021/12/04 13:26:06;;;;;;;1.10;0.90;;;8.60;98.00;;;;;;5011630;28;20459;-64
2021/12/04 13:28:36;;;;;;;1.10;1.00;;;8.70;98.00;;;;;;5010970;28;20517;-63
2021/12/04 13:31:06;;;;;;;1.10;1.10;;;8.70;98.00;;;;;;5011319;28;20492;-65
2021/12/04 13:33:39;;;;;;;1.10;0.90;;;8.80;98.00;;;;;;5011738;28;21027;-64
2021/12/04 13:36:13;;;;;;;1.20;1.07;;;8.80;98.00;;;;;;5011696;28;20542;-64
2021/12/04 13:38:41;;;;;;;1.10;0.90;;;8.80;98.00;;;;;;5011534;28;20463;-63
2021/12/04 13:41:08;;;;;;;1.30;1.07;;;8.80;98.00;;;;;;5010506;28;20885;-65
2021/12/04 13:43:35;;;;;;;1.10;1.07;;;8.90;98.00;;;;;;5011616;28;20487;-63
2021/12/04 13:46:06;;;;;;;1.10;1.00;;;8.90;98.00;;;;;;5011445;28;20519;-63
2021/12/04 13:48:36;;;;;;;1.10;0.90;;;8.90;98.00;;;;;;5011493;28;20496;-64
2021/12/04 13:51:05;;;;;;;1.10;0.90;;;8.90;98.00;;;;;;5011227;28;20493;-64
2021/12/04 13:53:34;;;;;;;1.10;0.90;;;8.90;98.00;;;;;;5011215;28;20490;-63
2021/12/04 13:56:04;;;;;;;1.10;1.00;;;9.00;98.00;;;;;;5011040;28;21029;-63
2021/12/04 13:58:32;;;;;;;1.10;1.00;;;9.00;98.00;;;;;;5011277;28;20519;-63
2021/12/04 14:01:01;;;;;;;1.10;1.00;;;9.10;98.00;;;;;;5011210;28;20941;-64
2021/12/04 14:03:31;;;;;;;1.10;0.90;;;9.10;98.00;;;;;;5010566;28;20558;-65
2021/12/04 14:06:00;;;;;;;1.10;1.00;;;9.10;98.00;;;;;;5011213;28;20520;-63
2021/12/04 14:08:27;;;;;;;1.10;1.00;;;9.00;98.00;;;;;;5010019;28;20499;-64
2021/12/04 14:10:55;;;;;;;1.10;0.93;;;9.10;98.00;;;;;;5011132;28;20453;-65
2021/12/04 14:13:24;;;;;;;1.10;1.00;;;9.10;98.00;;;;;;5009717;28;20576;-63
2021/12/04 14:15:55;;;;;;;1.10;0.90;;;9.10;98.00;;;;;;5010888;28;20458;-65
2021/12/04 14:18:26;;;;;;;1.13;1.10;;;9.10;98.00;;;;;;5010295;28;20461;-64
2021/12/04 14:20:55;;;;;;;1.10;0.90;;;9.20;98.00;;;;;;5010997;28;20459;-64
2021/12/04 14:23:25;;;;;;;1.20;1.10;;;9.10;98.00;;;;;;5010920;28;20574;-64
2021/12/04 14:25:54;;;;;;;1.10;1.00;;;9.10;98.00;;;;;;5010873;28;20902;-65
2021/12/04 14:28:25;;;;;;;1.10;0.93;;;9.10;98.00;;;;;;5010879;28;20560;-64
2021/12/04 14:30:53;;;;;;;1.20;1.00;;;9.10;98.00;;;;;;5010445;28;20463;-65
2021/12/04 14:33:22;;;;;;;1.10;1.00;;;9.10;98.00;;;;;;5011006;28;20494;-64
2021/12/04 14:35:52;;;;;;;1.10;0.90;;;9.10;98.00;;;;;;5010916;28;20457;-64
2021/12/04 14:38:21;;;;;;;1.10;0.90;;;9.10;98.00;;;;;;5011272;28;20553;-64
2021/12/04 14:40:54;;;;;;;1.10;1.00;;;9.00;98.00;;;;;;5011115;28;20513;-64
2021/12/04 14:43:26;;;;;;;1.10;1.00;;;9.10;98.00;;;;;;5010976;28;20499;-63
2021/12/04 14:45:56;;;;;;;1.10;1.00;;;9.20;98.00;;;;;;5010902;28;20466;-64
2021/12/04 14:48:28;;;;;;;1.10;1.00;;;9.10;98.00;;;;;;5011007;28;20704;-65
2021/12/04 14:51:05;;;;;;;1.10;1.00;;;9.10;98.00;;;;;;5010739;28;20520;-64
2021/12/04 14:53:34;;;;;;;1.10;0.93;;;9.10;98.00;;;;;;5010782;28;20553;-65
2021/12/04 14:56:06;;;;;;;1.37;1.10;;;9.10;98.00;;;;;;5010650;28;20494;-64
2021/12/04 14:58:33;;;;;;;1.10;0.90;;;9.10;98.00;;;;;;5010951;28;20548;-64
2021/12/04 15:01:03;;;;;;;1.10;1.00;;;9.10;98.00;;;;;;5010508;28;20517;-64
2021/12/04 15:03:33;;;;;;;1.10;0.90;;;9.10;98.00;;;;;;5010841;28;20480;-64
2021/12/04 15:06:04;;;;;;;1.20;1.00;;;9.10;98.00;;;;;;5011007;28;20491;-65
2021/12/04 15:08:34;;;;;;;1.10;0.90;;;9.10;98.00;;;;;;5012857;28;20875;-65
2021/12/04 15:11:05;;;;;;;1.10;1.00;;;9.10;98.00;;;;;;5014393;28;21004;-64
2021/12/04 15:13:35;;;;;;;1.23;1.10;;;9.10;98.00;;;;;;5013641;28;20513;-65
2021/12/04 15:16:06;;;;;;;1.10;0.90;;;9.10;98.00;;;;;;5014041;28;20540;-64
2021/12/04 15:18:36;;;;;;;1.10;0.97;;;9.10;98.00;;;;;;5013004;28;20463;-64
2021/12/04 15:21:05;;;;;;;1.10;1.00;;;9.10;98.00;;;;;;5014132;28;20456;-64
2021/12/04 15:23:35;;;;;;;1.10;0.90;;;9.00;98.00;;;;;;5014001;28;20455;-64
2021/12/04 15:26:09;;;;;;;1.10;0.90;;;9.00;98.00;;;;;;5014087;28;20483;-66
2021/12/04 15:28:43;;;;;;;1.10;0.90;;;9.10;98.00;;;;;;5014233;28;20942;-64
2021/12/04 15:31:10;;;;;;;1.10;1.00;;;9.10;98.00;;;;;;5013856;28;20536;-64
2021/12/04 15:33:40;;;;;;;1.10;0.90;;;9.10;98.00;;;;;;5013973;28;20785;-65
2021/12/04 15:36:21;;;;;;;1.10;1.00;;;9.10;98.00;;;;;;5013758;28;20464;-64
2021/12/04 15:38:51;;;;;;;1.10;1.00;;;9.10;98.00;;;;;;5012405;28;20470;-65
2021/12/04 15:41:38;;;;;;;1.10;1.00;;;9.00;98.00;;;;;;5013795;28;20466;-66
2021/12/04 15:44:21;;;;;;;1.93;1.20;;;9.00;98.00;;;;;;5011777;28;20717;-64
2021/12/04 15:46:57;;;;;;;1.10;1.10;;;9.00;98.00;;;;;;5010365;28;20463;-64